Oasis, Utah
Current Conditions -  °F | °C
As of 6:15 PM on Sunday 23 Nov 2014 (Local Time) from KDTA Reporting Station
Clear Clear  
Wind Chill: 32°   Ceiling: Unl
Heat Index: 32°   Visibility: 10mi
Dew Point: 20°   Wind: 0mph
Humidity: 62%   Direction: NA
Pressure: 30.28"   Gusts: NA
Location:  39.29°N, 112.63°W
Report Text: KDTA 240115Z AUTO 00000KT 10SM CLR 00/M07 A3028 RMK AO1 T00001066
Loading
Personal Weather Stations






























Interactive Weather Map New forecast layout! Learn more

10-Day Weather Forecast

Advertisements
Track Severe Weather on mobile